Strona główna
METAR-TAF:

METAR-TAF

Lotnisko :

Port lotniczy Gibraltar

Gibraltar, Gibraltar

Szerokość geograficzna: 36-09N, Długość geograficzna: 005-21W, wysokość: 5 m

Aktualna obserwacja pogody

Raport powstał 1 godzina i 16 minut temu, godzina 20:50 UTC
Wiatr 7 kt od wschód
Temperatura 16°C
Wilgotność 88%
Ciśnienie 1024 hPa
Widzialność 10 km lub więcej

METAR: LXGB 062050Z AUTO 09007KT 9999 // NCD 16/14 Q1024

czas: 00:06 (22:06 UTC)

Prognoza

Raport powstał 32 godziny i 41 minut temu, godzina 13:25 UTC
Prognoza ważna od 05 godzina 15 UTC do 05 godzina 23 UTC
Wiatr 12 kt od wschód
Widzialność 10 km lub więcej
Przerywane chmury na wysokości 2000 ft
Prawdopodobieństwo 40% :
Przejściowo
od 05 godzina 15 UTC do 05 godzina 23 UTC
Przerywane chmury na wysokości 1400 ft

TAF: LXGB 051325Z 0515/0523 08012KT 9999 BKN020 PROB40 TEMPO 0515/0523 BKN014

Obserwacja i prognoza pogody dla ponad 4000 lotnisk (raport METAR i TAF).

Dostępne stacje oznaczono żółtymi i czerwonymi punktami na mapie.

Najedź kursorem aby zobaczyć nazwę stacji.

Kliknij aby zobaczyć obserwacje i prognozy pogody.

Aby zmienić mapę: kliknij na zielony przycisk z czarnym krzyżykiem, aby powiększyć; na zielony przycisk z myślnikiem, aby pomniejszyć; na zielone strzałki, aby przejść do map sąsiednich.


METAR-TAF: